Terminal Aerodrome Forecast
Issued by NWS

Home | Current Version | Previous Version | Graphics & Text | Print | Product List | Glossary Off
Versions: 1 2 3 4 5 6 7 8 9 10 11 12 13 14 15 16 17 18 19 20 21 22 23 24 25 26 27 28 29 30 31 32 33 34 35 36 37

000
FTUS43 KLOT 041954 AAB
TAFORD
TAF AMD
KORD 041954Z 0420/0524 05010KT P6SM BKN040 BKN150
     FM042200 05008KT P6SM SCT040 BKN150
     FM050500 06007KT 6SM -SHRA VCTS SCT030 BKN050 BKN100CB
     FM050900 06007KT 4SM -SHRA VCTS BKN025 OVC050CB
     FM051100 06011KT 3SM -SHRA BR OVC010
     FM051800 06011KT P6SM SCT015 BKN050=

USA.gov is the U.S. government's official web portal to all federal, state and local government web resources and services.